Time;durP1;ratioP1;P1;durP2;ratioP2;P2;SDS_P1;SDS_P2;PMS_P1;PMS_P2;Temp;Humidity;BMP_temperature;BMP_pressure;BME280_temperature;BME280_humidity;BME280_pressure;Samples;Min_cycle;Max_cycle;Signal;HPM_P1;HPM_P2
2022/12/14 00:01:31;;;;;;;17.47;10.27;;;-5.00;99.90;;;;;;5008732;28;20502;-77
2022/12/14 00:03:58;;;;;;;19.00;11.33;;;-4.30;99.90;;;;;;5008940;28;20932;-78
2022/12/14 00:06:28;;;;;;;19.33;12.03;;;-5.00;99.90;;;;;;5008212;28;20976;-79
2022/12/14 00:08:57;;;;;;;21.20;10.00;;;-5.00;99.90;;;;;;5009216;28;20469;-79
2022/12/14 00:11:33;;;;;;;21.47;10.77;;;-5.00;99.90;;;;;;5008989;28;20909;-79
2022/12/14 00:14:02;;;;;;;14.90;9.87;;;-5.00;99.90;;;;;;5009053;28;21030;-77
2022/12/14 00:16:32;;;;;;;17.40;11.07;;;-4.10;99.90;;;;;;5009365;28;20549;-78
2022/12/14 00:19:00;;;;;;;15.13;10.10;;;-5.00;99.90;;;;;;5009453;28;20455;-77
2022/12/14 00:21:28;;;;;;;16.57;9.90;;;-4.90;99.90;;;;;;5009061;28;20852;-77
2022/12/14 00:23:57;;;;;;;18.30;10.43;;;-4.90;99.90;;;;;;5008059;28;20586;-76
2022/12/14 00:26:29;;;;;;;20.83;10.13;;;-4.90;99.90;;;;;;5009554;28;20550;-77
2022/12/14 00:28:57;;;;;;;16.50;10.60;;;-5.00;99.90;;;;;;5009801;28;20545;-77
2022/12/14 00:31:25;;;;;;;18.87;10.40;;;-4.90;99.90;;;;;;5009693;28;20944;-77
2022/12/14 00:33:52;;;;;;;18.20;10.97;;;-4.90;99.90;;;;;;5010396;28;20479;-77
2022/12/14 00:36:20;;;;;;;15.43;10.93;;;-4.80;99.90;;;;;;5010974;28;20486;-77
2022/12/14 00:38:48;;;;;;;20.77;11.00;;;-4.80;99.90;;;;;;5010686;28;20460;-79
2022/12/14 00:41:15;;;;;;;16.73;9.40;;;-4.80;99.90;;;;;;5011357;28;20514;-77
2022/12/14 00:43:42;;;;;;;21.33;13.87;;;-4.80;99.90;;;;;;5011305;28;20522;-77
2022/12/14 00:46:09;;;;;;;20.73;11.20;;;-4.80;99.90;;;;;;5008414;28;20456;-78
2022/12/14 00:48:37;;;;;;;15.20;10.93;;;-4.70;99.90;;;;;;5008398;28;20553;-77
2022/12/14 00:51:06;;;;;;;16.17;10.00;;;-4.70;99.90;;;;;;5008805;28;20962;-77
2022/12/14 00:53:33;;;;;;;17.67;10.63;;;-4.50;99.90;;;;;;5009367;28;20539;-78
2022/12/14 00:56:07;;;;;;;12.83;8.77;;;-4.60;99.90;;;;;;5012974;28;20495;-77
2022/12/14 00:58:34;;;;;;;15.00;9.40;;;-4.60;99.90;;;;;;5009154;28;20602;-77
2022/12/14 01:01:04;;;;;;;17.00;11.50;;;-4.60;99.90;;;;;;5008009;28;20483;-80
2022/12/14 01:03:32;;;;;;;21.97;12.00;;;-4.70;99.90;;;;;;5008068;28;20522;-77
2022/12/14 01:05:59;;;;;;;15.93;10.53;;;-4.90;99.90;;;;;;5008528;28;20479;-77
2022/12/14 01:08:33;;;;;;;16.37;10.10;;;-4.70;99.90;;;;;;5008699;28;20566;-77
2022/12/14 01:11:05;;;;;;;20.70;11.77;;;-4.70;99.90;;;;;;5007117;28;20897;-77
2022/12/14 01:13:32;;;;;;;15.17;10.20;;;-4.70;99.90;;;;;;5007298;28;20687;-77
2022/12/14 01:16:03;;;;;;;15.40;11.30;;;-4.70;99.90;;;;;;5007526;28;20456;-77
2022/12/14 01:18:34;;;;;;;14.83;9.30;;;-4.70;99.90;;;;;;5007949;28;20452;-77
2022/12/14 01:21:12;;;;;;;15.23;10.60;;;-4.60;99.90;;;;;;5008407;28;20465;-77
2022/12/14 01:23:39;;;;;;;19.73;11.57;;;-4.60;99.90;;;;;;5008042;28;20522;-77
2022/12/14 01:26:08;;;;;;;15.90;10.30;;;-4.70;99.90;;;;;;5007619;28;20498;-77
2022/12/14 01:28:34;;;;;;;21.50;12.10;;;-4.70;99.90;;;;;;5006577;28;20467;-75
2022/12/14 01:31:06;;;;;;;17.20;11.10;;;-4.60;99.90;;;;;;5007324;28;20692;-75
2022/12/14 01:33:33;;;;;;;20.03;10.33;;;-4.60;99.90;;;;;;5009073;28;20826;-75
2022/12/14 01:36:04;;;;;;;20.30;11.83;;;-4.60;99.90;;;;;;5010726;28;20529;-76
2022/12/14 01:38:31;;;;;;;18.87;11.00;;;-4.70;99.90;;;;;;5010858;28;20447;-75
2022/12/14 01:40:58;;;;;;;20.80;10.50;;;-4.60;99.90;;;;;;5010907;28;20451;-75
2022/12/14 01:43:48;;;;;;;21.07;12.30;;;-4.60;99.90;;;;;;5010078;28;20936;-75
2022/12/14 01:46:18;;;;;;;19.67;11.23;;;-4.50;99.90;;;;;;4991160;28;20547;-76
2022/12/14 01:48:47;;;;;;;16.90;11.70;;;-4.50;99.90;;;;;;4991367;28;20484;-76
2022/12/14 01:51:14;;;;;;;18.40;11.03;;;-4.40;99.90;;;;;;4991168;28;20474;-76
2022/12/14 01:53:41;;;;;;;19.43;11.93;;;-4.40;99.90;;;;;;4990945;28;20455;-76
2022/12/14 01:56:08;;;;;;;17.07;11.20;;;-4.50;99.90;;;;;;4991073;28;20544;-76
2022/12/14 01:58:35;;;;;;;20.17;12.30;;;-4.40;99.90;;;;;;4991454;28;20989;-76
2022/12/14 02:01:04;;;;;;;24.07;15.03;;;-4.40;99.90;;;;;;5004544;28;20479;-76
2022/12/14 02:03:35;;;;;;;23.80;11.73;;;-4.50;99.90;;;;;;5010318;28;20487;-76
2022/12/14 02:06:05;;;;;;;19.60;11.20;;;-4.50;99.90;;;;;;5010262;28;20456;-76
2022/12/14 02:08:32;;;;;;;16.80;11.47;;;-4.50;99.90;;;;;;5010412;28;20494;-76
2022/12/14 02:11:00;;;;;;;21.43;12.33;;;-4.50;99.90;;;;;;5010422;28;20505;-76
2022/12/14 02:13:31;;;;;;;20.57;11.70;;;-4.40;99.90;;;;;;5018878;28;20428;-76
2022/12/14 02:16:00;;;;;;;22.47;12.10;;;-4.40;99.90;;;;;;5015002;28;20487;-76
2022/12/14 02:18:31;;;;;;;17.90;9.30;;;-4.40;99.90;;;;;;5010691;28;20455;-76
2022/12/14 02:21:17;;;;;;;20.00;12.33;;;-4.40;99.90;;;;;;5010597;28;20531;-76
2022/12/14 02:24:33;;;;;;;20.70;10.83;;;-4.40;99.90;;;;;;5010184;28;20521;-76
2022/12/14 02:27:21;;;;;;;18.67;10.60;;;-4.30;99.90;;;;;;5010212;28;21233;-76
2022/12/14 02:29:57;;;;;;;16.60;10.80;;;-4.40;99.90;;;;;;5010163;28;20462;-76
2022/12/14 02:32:54;;;;;;;17.80;12.60;;;-4.30;99.90;;;;;;5010015;28;20558;-76
2022/12/14 02:35:37;;;;;;;18.00;12.20;;;-4.40;99.90;;;;;;4990150;28;20788;-76
2022/12/14 02:38:21;;;;;;;16.23;10.90;;;-4.30;99.90;;;;;;4990559;28;20540;-76
2022/12/14 02:40:57;;;;;;;23.13;12.93;;;-4.30;99.90;;;;;;4991848;28;20745;-76
2022/12/14 02:43:31;;;;;;;21.63;11.70;;;-4.40;99.90;;;;;;4994881;28;20526;-76
2022/12/14 02:46:09;;;;;;;20.20;11.80;;;-4.20;99.90;;;;;;4991233;28;20888;-76
2022/12/14 02:48:40;;;;;;;20.00;11.80;;;-3.00;99.90;;;;;;4990111;28;21023;-76
2022/12/14 02:51:15;;;;;;;20.83;10.93;;;-4.10;99.90;;;;;;5002850;28;20462;-75
2022/12/14 02:54:13;;;;;;;16.10;12.53;;;-4.10;99.90;;;;;;5021198;28;20447;-80
2022/12/14 02:57:12;;;;;;;21.87;11.87;;;-4.20;99.90;;;;;;5034301;28;20482;-81
2022/12/14 03:06:56;;;;;;;21.73;12.00;;;-4.30;99.90;;;;;;5030094;28;20431;-81
2022/12/14 03:12:12;;;;;;;22.00;12.90;;;-4.40;99.90;;;;;;5525514;23;20491;-81
2022/12/14 03:14:58;;;;;;;23.23;10.83;;;-3.90;99.90;;;;;;5038340;28;20461;-81
2022/12/14 03:26:03;;;;;;;17.53;12.13;;;-4.30;99.90;;;;;;5455158;22;20472;-81
2022/12/14 03:28:40;;;;;;;18.87;10.97;;;-4.30;99.90;;;;;;5078616;28;20454;-81
2022/12/14 03:31:19;;;;;;;20.67;12.10;;;-4.40;99.90;;;;;;5078815;28;20456;-77
2022/12/14 03:57:45;;;;;;;22.13;12.40;;;-4.20;99.90;;;;;;5035002;28;20431;-81
2022/12/14 04:00:20;;;;;;;20.87;12.03;;;-4.20;99.90;;;;;;5037315;28;20503;-78
2022/12/14 04:03:08;;;;;;;20.23;13.30;;;-3.50;99.90;;;;;;5037736;28;20461;-80
2022/12/14 04:05:49;;;;;;;19.30;12.33;;;-4.30;99.90;;;;;;5037911;28;20510;-80
2022/12/14 04:08:32;;;;;;;18.97;13.00;;;-4.30;99.90;;;;;;5037620;28;20459;-81
2022/12/14 04:19:41;;;;;;;23.40;12.50;;;-4.10;99.90;;;;;;5032801;28;20463;-79
2022/12/14 04:22:15;;;;;;;18.90;11.07;;;-3.90;99.90;;;;;;5036084;28;20787;-80
2022/12/14 04:27:42;;;;;;;22.97;12.40;;;-3.20;99.90;;;;;;5036201;28;20581;-80
2022/12/14 04:30:26;;;;;;;22.53;12.60;;;-4.40;99.90;;;;;;5037641;28;20471;-80
2022/12/14 04:33:45;;;;;;;20.93;12.63;;;-4.10;99.90;;;;;;5024851;28;20435;-79
2022/12/14 04:36:09;;;;;;;19.90;12.13;;;-4.10;99.90;;;;;;5036819;28;20462;-79
2022/12/14 04:38:47;;;;;;;18.23;12.00;;;-3.70;99.90;;;;;;5038185;28;20453;-80
2022/12/14 04:41:21;;;;;;;24.57;12.83;;;-4.00;99.90;;;;;;5468151;22;21496;-75
2022/12/14 04:43:58;;;;;;;48.63;25.00;;;-4.10;99.90;;;;;;5046778;28;20484;-81
2022/12/14 04:46:52;;;;;;;20.60;12.10;;;-4.00;99.90;;;;;;5041569;28;20471;-78
2022/12/14 04:49:36;;;;;;;18.20;11.73;;;-4.00;99.90;;;;;;5041551;28;20643;-79
2022/12/14 04:52:12;;;;;;;17.30;11.80;;;-4.00;99.90;;;;;;5042860;28;20491;-79
2022/12/14 04:54:48;;;;;;;23.33;11.93;;;-2.60;99.90;;;;;;5040621;28;20454;-79
2022/12/14 04:57:23;;;;;;;24.87;12.87;;;-3.40;99.90;;;;;;5041556;28;20477;-79
2022/12/14 04:59:53;;;;;;;21.43;12.20;;;-4.00;99.90;;;;;;5043101;28;20538;-78
2022/12/14 05:02:27;;;;;;;18.90;11.30;;;-3.00;99.90;;;;;;5040292;28;20535;-78
2022/12/14 05:05:02;;;;;;;21.13;13.13;;;-2.30;99.90;;;;;;5040620;28;20939;-79
2022/12/14 05:07:41;;;;;;;17.30;12.10;;;-3.20;99.90;;;;;;5042182;28;20508;-79
2022/12/14 05:10:12;;;;;;;19.10;11.30;;;-4.00;99.90;;;;;;5047797;28;20549;-78
2022/12/14 05:12:46;;;;;;;19.90;12.90;;;-3.20;99.90;;;;;;5027394;28;20858;-82
2022/12/14 05:15:20;;;;;;;20.07;12.00;;;-3.90;99.90;;;;;;5024116;28;20458;-79
2022/12/14 05:17:50;;;;;;;20.57;11.37;;;-3.70;99.90;;;;;;5017841;28;20462;-75
2022/12/14 05:23:48;;;;;;;19.70;11.07;;;-3.70;99.90;;;;;;5040579;28;20573;-78
2022/12/14 05:56:22;;;;;;;19.70;13.03;;;-3.70;99.90;;;;;;6192644;23;20406;-77
2022/12/14 05:58:50;;;;;;;21.50;12.23;;;-3.20;99.90;;;;;;6189930;23;20824;-77
2022/12/14 06:01:17;;;;;;;22.10;13.33;;;-3.70;99.90;;;;;;6189676;23;20417;-77
2022/12/14 06:03:45;;;;;;;21.60;14.97;;;-3.70;99.90;;;;;;6190824;23;20791;-78
2022/12/14 06:09:27;;;;;;;20.50;13.60;;;-3.70;99.90;;;;;;6200802;23;20405;-80
2022/12/14 06:22:42;;;;;;;20.73;13.03;;;-3.50;99.90;;;;;;6265766;22;20971;-78
2022/12/14 06:25:10;;;;;;;29.70;14.87;;;-3.60;99.90;;;;;;6286818;22;20509;-78
2022/12/14 06:27:41;;;;;;;25.87;13.67;;;-3.60;99.90;;;;;;6288438;22;20850;-76
2022/12/14 06:30:17;;;;;;;22.17;12.90;;;-3.60;99.90;;;;;;6285370;22;20518;-78
2022/12/14 06:32:44;;;;;;;19.37;11.90;;;-3.60;99.90;;;;;;6220675;22;20502;-79
2022/12/14 06:35:11;;;;;;;27.37;15.23;;;-3.60;99.90;;;;;;6256432;23;20416;-78
2022/12/14 06:37:38;;;;;;;21.67;13.87;;;-2.60;99.90;;;;;;6251405;23;20469;-77
2022/12/14 06:40:08;;;;;;;25.00;14.30;;;-3.50;99.90;;;;;;6251061;23;20989;-77
2022/12/14 06:42:35;;;;;;;27.20;11.73;;;-3.60;99.90;;;;;;6253294;23;20478;-78
2022/12/14 06:45:05;;;;;;;19.77;12.90;;;-3.60;99.90;;;;;;6250203;23;20412;-78
2022/12/14 06:47:33;;;;;;;24.33;14.40;;;-3.60;99.90;;;;;;6250337;23;20415;-80
2022/12/14 06:50:00;;;;;;;21.60;13.87;;;-3.70;99.90;;;;;;6248890;23;20412;-78
2022/12/14 06:52:36;;;;;;;16.53;10.60;;;-3.80;99.90;;;;;;6244359;23;20416;-79
2022/12/14 06:55:03;;;;;;;29.20;14.30;;;-3.80;99.90;;;;;;6246584;23;20818;-76
2022/12/14 07:00:45;;;;;;;21.67;12.30;;;-3.80;99.90;;;;;;6248248;23;20414;-81
2022/12/14 07:03:13;;;;;;;26.67;14.57;;;-3.90;99.90;;;;;;6247999;23;20416;-80
2022/12/14 07:10:49;;;;;;;27.07;14.47;;;-3.80;99.90;;;;;;6247832;23;20946;-80
2022/12/14 07:13:18;;;;;;;21.53;13.27;;;-3.30;99.90;;;;;;6251648;23;20413;-78
2022/12/14 07:15:45;;;;;;;25.73;15.33;;;-3.70;99.90;;;;;;6247132;23;20834;-80
2022/12/14 07:18:12;;;;;;;29.47;17.37;;;-3.40;99.90;;;;;;6249425;23;20669;-78
2022/12/14 07:20:55;;;;;;;17.57;12.03;;;-3.70;99.90;;;;;;6251139;23;20405;-80
2022/12/14 07:23:23;;;;;;;26.80;14.63;;;-3.70;99.90;;;;;;6249112;23;20444;-80
2022/12/14 07:25:50;;;;;;;25.20;15.00;;;-3.70;99.90;;;;;;6259354;23;20431;-78
2022/12/14 07:28:19;;;;;;;26.63;14.40;;;-2.50;99.90;;;;;;6252153;23;20401;-77
2022/12/14 08:00:00;;;;;;;22.20;14.20;;;-3.30;99.90;;;;;;6224469;22;20458;-82
2022/12/14 08:15:51;;;;;;;22.00;13.00;;;-3.30;99.90;;;;;;6256969;22;20456;-84
2022/12/14 08:18:44;;;;;;;24.73;13.13;;;-3.20;99.90;;;;;;6251772;23;20393;-83
2022/12/14 08:21:17;;;;;;;29.63;15.60;;;-3.30;99.90;;;;;;6262829;23;20485;-82
2022/12/14 08:23:44;;;;;;;25.47;15.20;;;-3.20;99.90;;;;;;6248444;23;20474;-80
2022/12/14 08:26:11;;;;;;;25.50;14.07;;;-3.20;99.90;;;;;;6245614;23;20898;-79
2022/12/14 08:28:38;;;;;;;24.27;12.67;;;-3.10;99.90;;;;;;6246496;23;20412;-79
2022/12/14 08:31:07;;;;;;;23.10;13.53;;;-3.10;99.90;;;;;;6246270;23;20456;-78
2022/12/14 08:33:37;;;;;;;30.53;14.53;;;-3.10;99.90;;;;;;6245909;23;20436;-79
2022/12/14 08:36:10;;;;;;;35.53;17.40;;;-3.00;99.90;;;;;;6246511;23;20773;-79
2022/12/14 08:38:37;;;;;;;33.67;15.87;;;-3.00;99.90;;;;;;6245788;23;20452;-81
2022/12/14 08:41:06;;;;;;;34.73;16.47;;;-3.00;99.90;;;;;;6247966;23;20431;-80
2022/12/14 08:43:33;;;;;;;24.30;15.37;;;-2.90;99.90;;;;;;6246814;23;20793;-80
2022/12/14 08:46:06;;;;;;;33.47;17.33;;;-2.90;99.90;;;;;;6247187;23;20822;-83
2022/12/14 08:48:35;;;;;;;25.83;14.33;;;-2.80;99.90;;;;;;6247505;23;20737;-80
2022/12/14 08:51:04;;;;;;;26.40;14.83;;;-2.80;99.90;;;;;;6248433;23;20492;-79
2022/12/14 08:53:31;;;;;;;31.13;16.13;;;-2.80;99.90;;;;;;6248205;23;20902;-79
2022/12/14 08:55:58;;;;;;;24.93;16.10;;;-2.80;99.90;;;;;;6245277;23;20408;-78
2022/12/14 08:58:25;;;;;;;24.73;15.43;;;-2.60;99.90;;;;;;6243211;23;20447;-71
2022/12/14 09:01:01;;;;;;;31.07;15.97;;;-2.50;99.90;;;;;;6240815;23;20433;-70
2022/12/14 09:03:28;;;;;;;31.87;13.97;;;-2.30;99.90;;;;;;6240287;23;20870;-71
2022/12/14 09:05:57;;;;;;;37.40;17.80;;;-2.20;99.90;;;;;;6239810;23;20485;-70
2022/12/14 09:08:24;;;;;;;27.20;15.67;;;-2.20;99.90;;;;;;6240067;23;20413;-70
2022/12/14 09:10:51;;;;;;;28.67;16.80;;;-2.10;99.90;;;;;;6239197;23;20963;-72
2022/12/14 09:13:19;;;;;;;28.17;15.90;;;-2.10;99.90;;;;;;6239265;23;20834;-70
2022/12/14 09:15:46;;;;;;;28.43;15.67;;;-2.00;99.90;;;;;;6239668;23;20500;-69
2022/12/14 09:18:13;;;;;;;26.47;15.53;;;-2.00;99.90;;;;;;6239901;23;20485;-69
2022/12/14 09:20:39;;;;;;;32.07;16.07;;;-2.00;99.90;;;;;;6239805;23;20540;-71
2022/12/14 09:23:08;;;;;;;26.60;15.60;;;-2.10;99.90;;;;;;6239387;23;21037;-70
2022/12/14 09:25:34;;;;;;;28.60;14.53;;;-2.10;99.90;;;;;;6239677;23;20421;-70
2022/12/14 09:28:01;;;;;;;19.73;13.40;;;-2.00;99.90;;;;;;6239535;23;20500;-69
2022/12/14 09:30:28;;;;;;;29.93;16.77;;;-2.00;99.90;;;;;;6239343;23;20416;-69
2022/12/14 09:32:55;;;;;;;26.17;16.87;;;-2.10;99.90;;;;;;6239740;23;20409;-72
2022/12/14 09:35:22;;;;;;;25.33;15.27;;;-2.10;99.90;;;;;;6239733;23;20492;-71
2022/12/14 09:37:49;;;;;;;27.20;14.07;;;-2.20;99.90;;;;;;6239789;23;20402;-71
2022/12/14 09:40:17;;;;;;;25.27;17.10;;;-2.20;99.90;;;;;;6239639;23;20440;-71
2022/12/14 09:42:53;;;;;;;34.00;16.87;;;-2.20;99.90;;;;;;6238461;23;20448;-70
2022/12/14 09:45:25;;;;;;;24.07;14.73;;;-2.20;99.90;;;;;;6239368;23;20567;-70
2022/12/14 09:48:00;;;;;;;27.53;15.57;;;-2.10;99.90;;;;;;6239699;23;20403;-71
2022/12/14 09:50:28;;;;;;;29.90;16.47;;;-2.10;99.90;;;;;;6239349;23;20394;-70
2022/12/14 09:52:59;;;;;;;30.30;15.40;;;-2.00;99.90;;;;;;6239639;23;20410;-71
2022/12/14 09:55:33;;;;;;;26.27;14.83;;;-2.00;99.90;;;;;;6239806;23;20489;-70
2022/12/14 09:58:05;;;;;;;22.47;15.60;;;-1.90;99.90;;;;;;6239847;23;20396;-71
2022/12/14 10:00:35;;;;;;;31.07;16.40;;;-1.90;99.90;;;;;;6238976;23;20434;-71
2022/12/14 10:03:29;;;;;;;24.70;14.90;;;-1.80;99.90;;;;;;6239646;23;20419;-71
2022/12/14 10:06:16;;;;;;;24.50;15.97;;;-1.70;99.90;;;;;;6239390;23;20394;-71
2022/12/14 10:08:49;;;;;;;23.20;14.77;;;-1.60;99.90;;;;;;6239927;23;20389;-70
2022/12/14 10:11:27;;;;;;;32.00;15.63;;;-1.50;99.90;;;;;;6239513;23;20413;-70
2022/12/14 10:14:08;;;;;;;24.47;11.67;;;-1.40;99.90;;;;;;6239274;23;20437;-70
2022/12/14 10:16:41;;;;;;;31.97;18.67;;;-1.40;99.90;;;;;;6239228;23;20481;-70
2022/12/14 10:19:20;;;;;;;24.60;14.50;;;-1.40;99.90;;;;;;6239566;23;20509;-70
2022/12/14 10:21:51;;;;;;;24.67;14.63;;;-1.40;99.90;;;;;;6240043;23;20469;-71
2022/12/14 10:24:21;;;;;;;24.47;15.43;;;-1.30;99.90;;;;;;6239340;23;20421;-70
2022/12/14 10:26:52;;;;;;;30.00;15.90;;;-1.40;99.90;;;;;;6240895;23;20488;-71
2022/12/14 10:29:29;;;;;;;28.30;15.37;;;-1.40;99.90;;;;;;6241776;23;20547;-71
2022/12/14 10:32:04;;;;;;;26.67;15.73;;;-1.40;99.90;;;;;;6241863;23;20425;-71
2022/12/14 10:34:33;;;;;;;24.27;15.00;;;-1.30;99.90;;;;;;6241637;23;20392;-71
2022/12/14 10:37:12;;;;;;;21.57;14.37;;;-1.30;99.90;;;;;;6241807;23;20409;-70
2022/12/14 10:39:50;;;;;;;25.00;15.40;;;-1.30;99.90;;;;;;6241203;23;20436;-74
2022/12/14 10:42:25;;;;;;;24.90;14.93;;;-1.20;99.90;;;;;;6241186;23;20774;-70
2022/12/14 10:45:01;;;;;;;27.40;14.33;;;-1.10;99.90;;;;;;6241641;23;20429;-70
2022/12/14 10:47:36;;;;;;;27.17;14.90;;;-1.00;99.90;;;;;;6241702;23;20512;-70
2022/12/14 10:50:13;;;;;;;21.13;15.30;;;-1.10;99.90;;;;;;6241790;23;20389;-70
2022/12/14 10:52:42;;;;;;;24.13;14.80;;;-1.10;99.90;;;;;;6241350;23;20390;-70
2022/12/14 10:55:15;;;;;;;25.77;14.90;;;-1.20;99.90;;;;;;6241324;23;20441;-70
2022/12/14 10:57:44;;;;;;;24.23;15.60;;;-1.20;99.90;;;;;;6242089;23;20405;-71
2022/12/14 11:00:13;;;;;;;26.73;14.70;;;-1.20;99.90;;;;;;6242904;23;20536;-71
2022/12/14 11:02:43;;;;;;;26.00;15.77;;;-1.20;99.90;;;;;;6241898;23;20441;-70
2022/12/14 11:05:23;;;;;;;25.83;15.77;;;-1.10;99.90;;;;;;6241442;23;20457;-70
2022/12/14 11:07:51;;;;;;;22.43;13.70;;;-1.30;99.90;;;;;;6240783;23;20887;-69
2022/12/14 11:10:20;;;;;;;28.60;15.60;;;-1.10;99.90;;;;;;6240742;23;20433;-70
2022/12/14 11:13:02;;;;;;;25.10;15.13;;;-1.00;99.90;;;;;;6241573;23;20445;-70
2022/12/14 11:15:34;;;;;;;33.50;16.53;;;-1.00;99.90;;;;;;6240725;23;20450;-70
2022/12/14 11:18:04;;;;;;;25.60;15.00;;;-0.90;99.90;;;;;;6240961;23;20394;-70
2022/12/14 11:20:32;;;;;;;27.03;16.50;;;-0.80;99.90;;;;;;6240819;23;20768;-70
2022/12/14 11:23:07;;;;;;;26.53;16.07;;;-0.90;99.90;;;;;;6239951;23;20500;-70
2022/12/14 11:25:39;;;;;;;23.53;15.50;;;-1.10;99.90;;;;;;6240806;23;20495;-70
2022/12/14 11:28:24;;;;;;;27.57;15.27;;;-1.00;99.90;;;;;;6241037;23;20444;-70
2022/12/14 11:30:58;;;;;;;33.13;15.93;;;-0.80;99.90;;;;;;6241272;23;20459;-70
2022/12/14 11:33:31;;;;;;;23.60;14.93;;;-0.70;99.90;;;;;;6239724;23;20495;-70
2022/12/14 11:39:22;;;;;;;25.37;15.03;;;-0.70;99.90;;;;;;6227634;23;20414;-74
2022/12/14 11:41:51;;;;;;;26.13;15.03;;;-0.80;99.90;;;;;;6240774;23;20723;-71
2022/12/14 11:44:25;;;;;;;24.87;16.40;;;-0.50;99.90;;;;;;6240917;23;20433;-72
2022/12/14 11:47:02;;;;;;;26.60;16.00;;;0.20;99.90;;;;;;6240558;23;20417;-71
2022/12/14 11:49:35;;;;;;;34.10;17.67;;;-0.50;99.90;;;;;;6239164;23;20985;-71
2022/12/14 11:52:09;;;;;;;25.70;15.87;;;-0.20;99.90;;;;;;6239476;23;20398;-72
2022/12/14 11:54:37;;;;;;;28.47;17.03;;;0.10;99.90;;;;;;6239687;23;20741;-71
2022/12/14 11:57:08;;;;;;;26.00;16.80;;;0.20;99.90;;;;;;6234558;23;20688;-79
2022/12/14 11:59:45;;;;;;;28.43;16.30;;;-0.10;99.90;;;;;;6242562;23;20454;-80
2022/12/14 12:02:27;;;;;;;27.73;17.10;;;0.70;99.90;;;;;;6244763;23;20444;-79
2022/12/14 12:04:58;;;;;;;28.93;17.33;;;0.00;99.90;;;;;;6238941;23;20421;-78
2022/12/14 12:07:30;;;;;;;30.23;17.40;;;0.00;99.90;;;;;;6247993;23;20415;-79
2022/12/14 12:10:06;;;;;;;32.07;17.47;;;-0.40;99.90;;;;;;6245033;23;20635;-78
2022/12/14 12:12:34;;;;;;;37.10;19.47;;;-0.60;99.90;;;;;;6238539;23;20493;-75
2022/12/14 12:15:03;;;;;;;28.90;18.20;;;-0.80;99.90;;;;;;6237872;23;20558;-77
2022/12/14 12:17:51;;;;;;;35.70;19.87;;;-0.80;99.90;;;;;;6238588;23;20973;-75
2022/12/14 12:20:40;;;;;;;25.13;15.33;;;-0.60;99.90;;;;;;6237390;23;20449;-75
2022/12/14 12:23:16;;;;;;;28.20;17.30;;;-0.40;99.90;;;;;;6250365;23;20398;-78
2022/12/14 12:25:47;;;;;;;33.07;18.73;;;-0.40;99.90;;;;;;6249623;23;20690;-78
2022/12/14 12:28:34;;;;;;;32.50;18.50;;;-0.30;99.90;;;;;;6250746;23;20505;-79
2022/12/14 12:31:09;;;;;;;26.17;16.20;;;-0.30;99.90;;;;;;6239527;23;20665;-68
2022/12/14 12:33:41;;;;;;;30.17;17.17;;;-0.20;99.90;;;;;;6236079;23;20978;-68
2022/12/14 12:36:12;;;;;;;26.37;18.80;;;-0.20;99.90;;;;;;6237261;23;20397;-76
2022/12/14 12:41:38;;;;;;;27.93;17.50;;;-0.10;99.90;;;;;;6250984;22;20461;-79
2022/12/14 12:44:22;;;;;;;31.87;18.17;;;-0.10;99.90;;;;;;6247956;23;20417;-79
2022/12/14 12:47:05;;;;;;;31.03;17.73;;;0.00;99.90;;;;;;6242575;23;20888;-79
2022/12/14 12:49:33;;;;;;;30.63;18.40;;;0.00;99.90;;;;;;6241664;23;20422;-79
2022/12/14 12:52:14;;;;;;;35.20;18.40;;;0.00;99.90;;;;;;6242710;23;20417;-79
2022/12/14 12:54:55;;;;;;;30.73;17.07;;;0.10;99.90;;;;;;6245715;23;20748;-79
2022/12/14 12:57:26;;;;;;;32.67;18.40;;;0.10;99.90;;;;;;6246965;23;20473;-79
2022/12/14 13:00:00;;;;;;;25.50;16.40;;;0.10;99.90;;;;;;6244659;23;20531;-78
2022/12/14 13:02:35;;;;;;;30.77;18.00;;;0.20;99.90;;;;;;6220926;23;20478;-79
2022/12/14 13:05:10;;;;;;;30.53;18.60;;;0.10;99.90;;;;;;6247861;23;20910;-79
2022/12/14 13:07:48;;;;;;;27.60;16.87;;;0.10;99.90;;;;;;6250619;23;20475;-79
2022/12/14 13:10:21;;;;;;;28.20;18.90;;;0.10;99.90;;;;;;6242648;23;20437;-79
2022/12/14 13:16:14;;;;;;;31.53;18.17;;;0.20;99.90;;;;;;4992487;27;2284340;-79
2022/12/14 13:18:47;;;;;;;32.00;19.07;;;0.00;99.90;;;;;;5067053;28;20214;-79
2022/12/14 13:21:23;;;;;;;39.23;19.13;;;0.10;99.90;;;;;;5067409;28;20472;-80
2022/12/14 13:23:50;;;;;;;31.73;17.67;;;0.10;99.90;;;;;;5068364;28;20534;-77
2022/12/14 13:26:30;;;;;;;29.90;18.90;;;0.10;99.90;;;;;;5068826;28;20453;-78
2022/12/14 13:29:08;;;;;;;40.30;21.40;;;0.10;99.90;;;;;;5069875;28;20515;-78
2022/12/14 13:31:45;;;;;;;26.27;17.77;;;0.20;99.90;;;;;;5068974;28;20488;-77
2022/12/14 13:34:28;;;;;;;28.30;17.60;;;0.30;99.90;;;;;;5068478;28;20587;-80
2022/12/14 13:37:38;;;;;;;36.00;17.10;;;0.20;99.90;;;;;;5066490;28;20881;-78
2022/12/14 13:40:49;;;;;;;37.27;22.33;;;0.20;99.90;;;;;;5002048;28;20517;-78
2022/12/14 13:43:30;;;;;;;34.07;20.23;;;0.10;99.90;;;;;;5020152;28;20967;-78
2022/12/14 13:46:05;;;;;;;30.33;17.77;;;-0.20;99.90;;;;;;5066048;28;20566;-75
2022/12/14 13:48:43;;;;;;;35.20;20.17;;;-0.30;99.90;;;;;;5063649;28;20452;-74
2022/12/14 13:51:28;;;;;;;45.20;21.13;;;-0.20;99.90;;;;;;5072276;28;20841;-78
2022/12/14 13:53:58;;;;;;;32.37;20.57;;;0.60;99.90;;;;;;5064357;28;20565;-78
2022/12/14 13:56:29;;;;;;;33.30;22.10;;;-0.40;99.90;;;;;;5067767;28;20471;-78
2022/12/14 13:59:03;;;;;;;41.17;21.87;;;-0.40;99.90;;;;;;5069874;28;20500;-78
2022/12/14 14:01:55;;;;;;;42.80;23.27;;;-0.50;99.90;;;;;;5069363;28;20445;-78
2022/12/14 14:04:26;;;;;;;45.53;22.33;;;-0.70;99.90;;;;;;5054697;28;21035;-78
2022/12/14 14:06:54;;;;;;;33.70;20.57;;;-0.80;99.90;;;;;;5068702;28;20567;-80
2022/12/14 14:10:03;;;;;;;39.87;21.17;;;-0.80;99.90;;;;;;5063291;28;20481;-78
2022/12/14 14:12:44;;;;;;;40.43;21.57;;;-0.70;99.90;;;;;;5049218;28;20465;-78
2022/12/14 14:15:32;;;;;;;34.63;20.27;;;-0.70;99.90;;;;;;5050526;28;20493;-79
2022/12/14 14:18:18;;;;;;;40.53;21.53;;;-0.60;99.90;;;;;;5049702;28;20544;-79
2022/12/14 14:20:48;;;;;;;40.10;22.30;;;-0.70;99.90;;;;;;5048957;28;20460;-78
2022/12/14 14:23:56;;;;;;;39.27;21.80;;;-0.60;99.90;;;;;;5047662;28;20977;-78
2022/12/14 14:26:30;;;;;;;42.73;22.40;;;-0.50;99.90;;;;;;5029187;28;20442;-79
2022/12/14 14:29:22;;;;;;;40.47;23.27;;;-0.40;99.90;;;;;;5034922;28;20534;-78
2022/12/14 14:31:57;;;;;;;47.37;25.97;;;-0.40;99.90;;;;;;5029467;28;20470;-79
2022/12/14 14:34:33;;;;;;;46.50;26.00;;;-0.40;99.90;;;;;;5037449;28;21028;-78
2022/12/14 14:38:02;;;;;;;49.27;24.63;;;-0.50;99.90;;;;;;5019937;28;20488;-79
2022/12/14 14:40:55;;;;;;;40.93;21.07;;;-0.50;99.90;;;;;;5023163;28;20544;-78
2022/12/14 14:43:29;;;;;;;43.93;25.43;;;-0.30;99.90;;;;;;5037393;28;20537;-80
2022/12/14 14:46:33;;;;;;;49.77;25.73;;;-0.30;99.90;;;;;;5046472;28;20448;-81
2022/12/14 14:49:01;;;;;;;39.10;22.50;;;-0.40;99.90;;;;;;5044687;28;20458;-80
2022/12/14 14:51:32;;;;;;;47.40;24.13;;;-0.40;99.90;;;;;;5030658;28;20542;-80
2022/12/14 14:54:30;;;;;;;40.53;22.17;;;-0.40;99.90;;;;;;5031261;28;20532;-79
2022/12/14 14:57:04;;;;;;;40.43;22.80;;;-0.20;99.90;;;;;;5032482;28;20462;-80
2022/12/14 15:00:00;;;;;;;40.47;23.87;;;-0.10;99.90;;;;;;5044561;28;20469;-80
2022/12/14 15:11:20;;;;;;;40.00;24.37;;;0.00;99.90;;;;;;4953940;29;20885;-78
2022/12/14 15:13:56;;;;;;;36.33;23.10;;;0.10;99.90;;;;;;4964541;28;20518;-78
2022/12/14 15:16:29;;;;;;;40.77;24.13;;;0.20;99.90;;;;;;4965074;28;20497;-74
2022/12/14 15:19:11;;;;;;;48.50;28.90;;;0.20;99.90;;;;;;4949911;29;20954;-75
2022/12/14 15:21:41;;;;;;;50.93;28.23;;;0.20;99.90;;;;;;4972813;28;20494;-79
2022/12/14 15:24:17;;;;;;;51.33;26.73;;;0.10;99.90;;;;;;4975540;28;20449;-82
2022/12/14 15:26:51;;;;;;;39.87;26.87;;;-0.10;99.90;;;;;;4977078;28;20461;-80
2022/12/14 15:29:28;;;;;;;52.97;27.17;;;0.20;99.90;;;;;;4970876;29;20453;-81
2022/12/14 15:32:00;;;;;;;47.40;27.17;;;0.20;99.90;;;;;;4979116;28;20459;-80
2022/12/14 15:34:38;;;;;;;48.13;25.57;;;0.20;99.90;;;;;;4980893;28;20439;-81
2022/12/14 15:37:06;;;;;;;48.37;26.53;;;0.20;99.90;;;;;;4978490;28;20442;-81
2022/12/14 15:42:30;;;;;;;45.03;25.50;;;0.30;99.90;;;;;;4976445;28;20449;-82
2022/12/14 15:45:10;;;;;;;51.07;27.63;;;0.30;99.90;;;;;;4952056;29;20472;-80
2022/12/14 15:47:39;;;;;;;49.53;26.80;;;0.30;99.90;;;;;;4969263;28;20498;-83
2022/12/14 15:50:20;;;;;;;42.57;26.90;;;0.30;99.90;;;;;;4975463;28;20478;-81
2022/12/14 15:53:02;;;;;;;60.33;30.70;;;0.70;99.90;;;;;;4970952;29;20650;-81
2022/12/14 15:55:40;;;;;;;45.83;27.53;;;0.40;99.90;;;;;;4974186;28;20477;-78
2022/12/14 15:58:11;;;;;;;47.43;26.87;;;1.20;99.90;;;;;;4979104;28;20493;-81